Time;durP1;ratioP1;P1;durP2;ratioP2;P2;SDS_P1;SDS_P2;PMS_P1;PMS_P2;Temp;Humidity;BMP_temperature;BMP_pressure;BME280_temperature;BME280_humidity;BME280_pressure;Samples;Min_cycle;Max_cycle;Signal;HPM_P1;HPM_P2
2024/02/24 00:02:12;;;;;;;8.10;5.23;;;;;;;;;;748355;184;1018746;-63
2024/02/24 00:04:38;;;;;;;10.33;6.87;;;;;;;;;;756928;184;922326;-63
2024/02/24 00:07:04;;;;;;;9.43;5.57;;;;;;;;;;750985;185;916991;-63
2024/02/24 00:09:30;;;;;;;9.70;5.80;;;;;;;;;;752019;185;920070;-64
2024/02/24 00:11:56;;;;;;;8.30;5.37;;;;;;;;;;754526;184;864699;-63
2024/02/24 00:14:21;;;;;;;6.60;4.00;;;;;;;;;;748516;185;944372;-63
2024/02/24 00:16:47;;;;;;;7.40;4.80;;;;;;;;;;748375;185;1043311;-64
2024/02/24 00:19:13;;;;;;;6.77;4.50;;;;;;;;;;755054;185;982953;-64
2024/02/24 00:21:39;;;;;;;9.07;5.63;;;;;;;;;;755878;185;860579;-63
2024/02/24 00:24:05;;;;;;;5.93;4.12;;;;;;;;;;749985;185;815504;-65
2024/02/24 00:26:31;;;;;;;10.43;5.33;;;;;;;;;;748280;185;919066;-64
2024/02/24 00:28:57;;;;;;;8.18;5.25;;;;;;;;;;756504;185;915886;-64
2024/02/24 00:31:22;;;;;;;5.83;3.97;;;;;;;;;;753048;184;919225;-63
2024/02/24 00:33:48;;;;;;;8.50;5.43;;;;;;;;;;751279;185;920134;-63
2024/02/24 00:36:14;;;;;;;6.60;5.10;;;;;;;;;;757664;185;922087;-63
2024/02/24 00:38:40;;;;;;;6.13;4.40;;;;;;;;;;749796;185;917519;-63
2024/02/24 00:41:06;;;;;;;7.80;5.17;;;;;;;;;;748554;185;917403;-63
2024/02/24 00:43:32;;;;;;;8.00;6.03;;;;;;;;;;754327;185;913864;-63
2024/02/24 00:45:58;;;;;;;8.70;5.20;;;;;;;;;;753519;185;919700;-65
2024/02/24 00:48:23;;;;;;;6.83;5.07;;;;;;;;;;756177;184;862984;-62
2024/02/24 00:50:49;;;;;;;10.50;5.70;;;;;;;;;;750457;185;817068;-64
2024/02/24 00:53:15;;;;;;;10.10;5.23;;;;;;;;;;752289;185;922226;-65
2024/02/24 00:55:41;;;;;;;8.73;5.50;;;;;;;;;;748572;184;918811;-63
2024/02/24 00:58:07;;;;;;;7.83;4.87;;;;;;;;;;748092;185;918915;-63
2024/02/24 01:00:33;;;;;;;7.90;5.47;;;;;;;;;;757932;185;919143;-63
2024/02/24 01:02:58;;;;;;;7.10;4.67;;;;;;;;;;750223;185;918930;-65
2024/02/24 01:05:24;;;;;;;8.03;5.40;;;;;;;;;;747801;185;918634;-65
2024/02/24 01:07:55;;;;;;;7.53;5.10;;;;;;;;;;752053;185;862379;-67
2024/02/24 01:10:16;;;;;;;7.60;4.70;;;;;;;;;;752368;184;918863;-64
2024/02/24 01:12:42;;;;;;;10.30;5.63;;;;;;;;;;751115;185;947805;-64
2024/02/24 01:15:08;;;;;;;8.23;5.10;;;;;;;;;;750725;184;918680;-62
2024/02/24 01:17:34;;;;;;;9.50;6.23;;;;;;;;;;755680;185;919605;-63
2024/02/24 01:19:59;;;;;;;8.15;5.37;;;;;;;;;;751364;185;844874;-66
2024/02/24 01:22:25;;;;;;;11.07;6.30;;;;;;;;;;750027;185;916036;-67
2024/02/24 01:24:52;;;;;;;11.23;6.03;;;;;;;;;;756503;185;819248;-63
2024/02/24 01:27:17;;;;;;;11.50;5.87;;;;;;;;;;751069;184;918730;-63
2024/02/24 01:29:43;;;;;;;9.90;6.70;;;;;;;;;;750980;185;924541;-63
2024/02/24 01:32:09;;;;;;;11.80;8.00;;;;;;;;;;753551;185;918806;-66
2024/02/24 01:34:34;;;;;;;13.43;8.37;;;;;;;;;;744187;184;937156;-64
2024/02/24 01:37:00;;;;;;;13.37;8.90;;;;;;;;;;751386;185;818226;-65
2024/02/24 01:39:26;;;;;;;12.55;9.55;;;;;;;;;;754308;185;918441;-63
2024/02/24 01:41:52;;;;;;;16.13;8.70;;;;;;;;;;751937;184;919657;-63
2024/02/24 01:44:18;;;;;;;17.13;8.27;;;;;;;;;;752852;185;917526;-65
2024/02/24 01:46:47;;;;;;;10.70;7.87;;;;;;;;;;749198;184;817228;-63
2024/02/24 01:49:13;;;;;;;9.60;6.87;;;;;;;;;;754859;185;814091;-65
2024/02/24 01:51:38;;;;;;;14.00;6.90;;;;;;;;;;751055;185;919972;-63
2024/02/24 01:54:04;;;;;;;10.67;7.20;;;;;;;;;;750981;184;921662;-65
2024/02/24 01:56:30;;;;;;;12.93;8.60;;;;;;;;;;751442;185;919575;-65
2024/02/24 01:58:56;;;;;;;9.83;7.17;;;;;;;;;;749965;183;920905;-63
2024/02/24 02:01:22;;;;;;;13.23;9.03;;;;;;;;;;750056;185;821992;-65
2024/02/24 02:03:47;;;;;;;11.80;7.80;;;;;;;;;;751139;185;957879;-63
2024/02/24 02:06:13;;;;;;;8.90;7.10;;;;;;;;;;754198;185;885276;-63
2024/02/24 02:08:39;;;;;;;12.70;8.20;;;;;;;;;;751084;185;918670;-66
2024/02/24 02:11:05;;;;;;;11.90;8.70;;;;;;;;;;747482;185;940222;-63
2024/02/24 02:13:31;;;;;;;13.60;7.45;;;;;;;;;;754279;185;923399;-66
2024/02/24 02:15:57;;;;;;;11.00;7.87;;;;;;;;;;752571;185;910218;-62
2024/02/24 02:18:23;;;;;;;12.47;8.23;;;;;;;;;;748617;185;914194;-63
2024/02/24 02:20:48;;;;;;;11.87;6.80;;;;;;;;;;757945;185;825458;-63
2024/02/24 02:23:14;;;;;;;11.60;7.43;;;;;;;;;;751274;185;816440;-63
2024/02/24 02:25:40;;;;;;;13.00;7.40;;;;;;;;;;752741;184;918430;-63
2024/02/24 02:28:06;;;;;;;10.10;7.03;;;;;;;;;;751773;185;816757;-66
2024/02/24 02:30:32;;;;;;;10.97;7.13;;;;;;;;;;754289;184;918899;-66
2024/02/24 02:32:58;;;;;;;7.40;5.47;;;;;;;;;;751161;183;919037;-66
2024/02/24 02:35:24;;;;;;;8.15;6.97;;;;;;;;;;748070;185;918389;-63
2024/02/24 02:37:49;;;;;;;8.20;5.87;;;;;;;;;;756540;185;922520;-66
2024/02/24 02:40:15;;;;;;;8.60;6.60;;;;;;;;;;753252;184;921870;-66
2024/02/24 02:42:41;;;;;;;7.73;4.83;;;;;;;;;;748123;185;917430;-65
2024/02/24 02:45:07;;;;;;;8.80;5.43;;;;;;;;;;758464;184;920049;-66
2024/02/24 02:47:33;;;;;;;8.80;5.90;;;;;;;;;;756902;184;920893;-65
2024/02/24 02:49:59;;;;;;;9.80;5.73;;;;;;;;;;749692;184;818792;-63
2024/02/24 02:52:25;;;;;;;9.88;6.25;;;;;;;;;;753278;185;1019691;-65
2024/02/24 02:54:51;;;;;;;8.60;6.00;;;;;;;;;;750181;187;915757;-66
2024/02/24 02:57:17;;;;;;;9.73;6.80;;;;;;;;;;753611;185;817962;-66
2024/02/24 02:59:43;;;;;;;7.87;5.87;;;;;;;;;;755460;184;916141;-66
2024/02/24 03:02:09;;;;;;;9.53;6.50;;;;;;;;;;756868;185;1022550;-66
2024/02/24 03:04:34;;;;;;;7.90;5.70;;;;;;;;;;751455;184;918854;-66
2024/02/24 03:07:01;;;;;;;8.70;5.93;;;;;;;;;;748325;184;816751;-66
2024/02/24 03:09:26;;;;;;;10.20;6.60;;;;;;;;;;752374;185;922925;-67
2024/02/24 03:11:52;;;;;;;6.93;5.50;;;;;;;;;;748259;185;919225;-65
2024/02/24 03:14:18;;;;;;;8.32;5.87;;;;;;;;;;751845;184;913841;-64
2024/02/24 03:16:44;;;;;;;7.83;6.00;;;;;;;;;;753933;187;815466;-66
2024/02/24 03:19:10;;;;;;;8.70;6.20;;;;;;;;;;748494;185;940372;-66
2024/02/24 03:21:35;;;;;;;8.83;7.00;;;;;;;;;;748401;185;919174;-66
2024/02/24 03:24:01;;;;;;;6.93;5.70;;;;;;;;;;748235;185;898279;-65
2024/02/24 03:26:27;;;;;;;11.03;5.87;;;;;;;;;;755144;185;815569;-65
2024/02/24 03:28:53;;;;;;;7.93;6.30;;;;;;;;;;751539;185;918717;-66
2024/02/24 03:31:19;;;;;;;11.50;6.43;;;;;;;;;;754542;184;919133;-66
2024/02/24 03:33:45;;;;;;;8.90;6.60;;;;;;;;;;755206;184;918454;-66
2024/02/24 03:36:11;;;;;;;9.23;6.87;;;;;;;;;;747999;184;946170;-66
2024/02/24 03:38:37;;;;;;;8.80;6.47;;;;;;;;;;752243;181;919263;-66
2024/02/24 03:41:03;;;;;;;8.70;6.40;;;;;;;;;;755293;185;775924;-66
2024/02/24 03:43:29;;;;;;;9.20;6.30;;;;;;;;;;749370;185;917185;-67
2024/02/24 03:45:54;;;;;;;8.40;6.43;;;;;;;;;;749519;185;921989;-66
2024/02/24 03:48:20;;;;;;;10.57;7.33;;;;;;;;;;751437;185;851734;-67
2024/02/24 03:50:46;;;;;;;8.97;8.07;;;;;;;;;;751736;185;872590;-65
2024/02/24 03:53:12;;;;;;;7.33;5.77;;;;;;;;;;747722;185;896882;-64
2024/02/24 03:55:38;;;;;;;9.33;7.03;;;;;;;;;;749501;184;919077;-63
2024/02/24 03:58:04;;;;;;;9.67;7.27;;;;;;;;;;753231;185;919347;-63
2024/02/24 04:00:34;;;;;;;10.20;7.07;;;;;;;;;;748622;185;918753;-64
2024/02/24 04:02:55;;;;;;;10.60;7.27;;;;;;;;;;750434;183;919452;-64
2024/02/24 04:05:21;;;;;;;11.03;7.80;;;;;;;;;;752552;185;918883;-65
2024/02/24 04:07:48;;;;;;;9.70;7.35;;;;;;;;;;750980;185;864634;-64
2024/02/24 04:10:13;;;;;;;8.47;6.17;;;;;;;;;;749378;184;918636;-63
2024/02/24 04:12:39;;;;;;;10.63;7.55;;;;;;;;;;752728;185;919875;-64
2024/02/24 04:15:05;;;;;;;8.43;7.40;;;;;;;;;;762163;183;870296;-67
2024/02/24 04:17:31;;;;;;;8.10;6.37;;;;;;;;;;748925;185;919921;-64
2024/02/24 04:19:57;;;;;;;9.80;6.20;;;;;;;;;;751961;185;921012;-64
2024/02/24 04:22:23;;;;;;;8.87;6.30;;;;;;;;;;752943;185;918706;-64
2024/02/24 04:24:49;;;;;;;8.43;6.00;;;;;;;;;;748951;185;919790;-63
2024/02/24 04:27:14;;;;;;;8.10;5.37;;;;;;;;;;745817;184;920498;-64
2024/02/24 04:29:40;;;;;;;8.37;6.63;;;;;;;;;;753669;185;919849;-63
2024/02/24 04:32:06;;;;;;;10.27;6.23;;;;;;;;;;753515;184;901772;-63
2024/02/24 04:34:32;;;;;;;7.37;6.10;;;;;;;;;;752624;184;920401;-63
2024/02/24 04:36:58;;;;;;;8.60;5.80;;;;;;;;;;747681;185;921622;-63
2024/02/24 04:39:24;;;;;;;7.70;5.50;;;;;;;;;;747227;185;918274;-63
2024/02/24 04:41:50;;;;;;;7.70;5.70;;;;;;;;;;750184;185;816714;-63
2024/02/24 04:44:15;;;;;;;8.73;5.63;;;;;;;;;;748968;183;918858;-62
2024/02/24 04:46:41;;;;;;;6.60;4.95;;;;;;;;;;752577;185;919475;-63
2024/02/24 04:49:08;;;;;;;9.13;4.87;;;;;;;;;;750908;185;919962;-63
2024/02/24 04:51:33;;;;;;;6.17;5.00;;;;;;;;;;752189;185;919130;-62
2024/02/24 04:53:59;;;;;;;7.60;4.30;;;;;;;;;;759716;181;820973;-63
2024/02/24 04:56:25;;;;;;;7.37;6.00;;;;;;;;;;744532;185;919699;-62
2024/02/24 04:58:50;;;;;;;7.53;4.80;;;;;;;;;;748823;184;918626;-62
2024/02/24 05:01:17;;;;;;;7.03;5.30;;;;;;;;;;756959;185;919385;-62
2024/02/24 05:03:42;;;;;;;7.13;4.90;;;;;;;;;;747350;185;919372;-63
2024/02/24 05:06:09;;;;;;;7.77;4.87;;;;;;;;;;748743;185;924398;-63
2024/02/24 05:08:34;;;;;;;6.20;4.43;;;;;;;;;;747864;183;1020644;-62
2024/02/24 05:11:00;;;;;;;7.43;5.80;;;;;;;;;;753400;185;917894;-62
2024/02/24 05:13:25;;;;;;;6.03;4.23;;;;;;;;;;748074;185;919532;-62
2024/02/24 05:15:51;;;;;;;5.17;3.90;;;;;;;;;;749711;184;1013627;-62
2024/02/24 05:18:17;;;;;;;4.70;3.70;;;;;;;;;;752512;185;919086;-62
2024/02/24 05:20:43;;;;;;;5.47;3.53;;;;;;;;;;751902;185;920491;-63
2024/02/24 05:23:09;;;;;;;5.90;3.50;;;;;;;;;;751192;185;867726;-63
2024/02/24 05:25:35;;;;;;;4.77;3.03;;;;;;;;;;752968;185;816132;-62
2024/02/24 05:28:01;;;;;;;9.83;3.80;;;;;;;;;;751118;185;919479;-64
2024/02/24 05:30:26;;;;;;;5.50;3.65;;;;;;;;;;749897;184;821902;-62
2024/02/24 05:32:52;;;;;;;4.30;3.00;;;;;;;;;;749682;185;816777;-62
2024/02/24 05:35:18;;;;;;;6.10;3.70;;;;;;;;;;744280;187;918718;-62
2024/02/24 05:37:44;;;;;;;5.10;3.40;;;;;;;;;;750656;185;869836;-61
2024/02/24 05:40:10;;;;;;;4.70;3.23;;;;;;;;;;746432;185;918860;-62
2024/02/24 05:42:36;;;;;;;7.00;4.00;;;;;;;;;;755570;184;912041;-62
2024/02/24 05:45:02;;;;;;;6.50;3.87;;;;;;;;;;748584;185;1019179;-61
2024/02/24 05:47:27;;;;;;;5.30;3.30;;;;;;;;;;750172;185;811265;-62
2024/02/24 05:49:53;;;;;;;5.30;3.70;;;;;;;;;;753783;185;836101;-62
2024/02/24 05:52:19;;;;;;;5.40;3.47;;;;;;;;;;747747;185;927390;-63
2024/02/24 05:54:45;;;;;;;4.60;3.27;;;;;;;;;;752466;184;922044;-63
2024/02/24 05:57:11;;;;;;;5.40;3.80;;;;;;;;;;748197;185;981072;-62
2024/02/24 05:59:37;;;;;;;6.60;4.03;;;;;;;;;;755592;181;952266;-62
2024/02/24 06:02:03;;;;;;;6.33;4.60;;;;;;;;;;749196;183;919042;-61
2024/02/24 06:04:29;;;;;;;5.20;4.03;;;;;;;;;;751186;185;918965;-65
2024/02/24 06:06:54;;;;;;;5.57;3.37;;;;;;;;;;755429;184;918363;-62
2024/02/24 06:09:20;;;;;;;5.77;4.30;;;;;;;;;;751121;184;892662;-64
2024/02/24 06:11:46;;;;;;;6.60;4.67;;;;;;;;;;751407;183;922464;-60
2024/02/24 06:14:13;;;;;;;7.00;4.10;;;;;;;;;;760844;185;630181;-63
2024/02/24 06:16:38;;;;;;;5.97;3.93;;;;;;;;;;752272;185;915834;-62
2024/02/24 06:19:04;;;;;;;6.43;4.23;;;;;;;;;;749680;184;918717;-61
2024/02/24 06:21:29;;;;;;;7.00;3.30;;;;;;;;;;757859;185;817124;-63
2024/02/24 06:23:55;;;;;;;5.40;3.20;;;;;;;;;;750976;185;920148;-61
2024/02/24 06:26:21;;;;;;;6.23;4.13;;;;;;;;;;749626;185;912893;-62
2024/02/24 06:28:47;;;;;;;5.43;3.70;;;;;;;;;;746627;185;921544;-62
2024/02/24 06:31:14;;;;;;;7.20;3.87;;;;;;;;;;755806;185;917411;-61
2024/02/24 06:33:39;;;;;;;6.47;2.90;;;;;;;;;;751020;185;919668;-62
2024/02/24 06:36:06;;;;;;;4.50;3.17;;;;;;;;;;752764;185;875408;-61
2024/02/24 06:38:32;;;;;;;5.10;3.40;;;;;;;;;;754158;185;818978;-62
2024/02/24 06:40:58;;;;;;;4.60;2.93;;;;;;;;;;752778;184;620339;-62
2024/02/24 06:43:23;;;;;;;6.07;3.00;;;;;;;;;;751691;184;918146;-61
2024/02/24 06:45:49;;;;;;;4.73;2.77;;;;;;;;;;754633;185;711933;-63
2024/02/24 06:48:15;;;;;;;5.10;2.97;;;;;;;;;;749159;184;917042;-63
2024/02/24 06:50:41;;;;;;;4.10;2.70;;;;;;;;;;747713;185;1023308;-62
2024/02/24 06:53:07;;;;;;;5.20;2.93;;;;;;;;;;754005;185;815808;-61
2024/02/24 06:55:32;;;;;;;4.27;3.23;;;;;;;;;;755732;185;823814;-64
2024/02/24 06:57:58;;;;;;;5.73;3.53;;;;;;;;;;750547;184;919017;-62
2024/02/24 07:00:24;;;;;;;6.47;4.03;;;;;;;;;;754585;185;632443;-61
2024/02/24 07:02:50;;;;;;;5.30;3.80;;;;;;;;;;755114;185;816935;-64
2024/02/24 07:05:16;;;;;;;7.80;4.40;;;;;;;;;;748452;185;918954;-61
2024/02/24 07:07:42;;;;;;;6.77;4.90;;;;;;;;;;748381;185;919224;-63
2024/02/24 07:10:08;;;;;;;7.90;4.83;;;;;;;;;;755674;185;915138;-62
2024/02/24 07:12:34;;;;;;;7.33;5.30;;;;;;;;;;749252;184;922146;-62
2024/02/24 07:14:59;;;;;;;7.13;4.60;;;;;;;;;;748894;185;917234;-61
2024/02/24 07:17:26;;;;;;;6.60;4.40;;;;;;;;;;750356;185;914223;-61
2024/02/24 07:19:51;;;;;;;7.60;5.87;;;;;;;;;;758650;185;925083;-62
2024/02/24 07:22:17;;;;;;;6.40;5.00;;;;;;;;;;752824;185;921436;-63
2024/02/24 07:24:43;;;;;;;8.57;5.73;;;;;;;;;;748784;185;912670;-62
2024/02/24 07:27:09;;;;;;;6.90;5.03;;;;;;;;;;758570;185;819199;-61
2024/02/24 07:29:35;;;;;;;7.07;5.40;;;;;;;;;;752893;184;920894;-61
2024/02/24 07:32:01;;;;;;;6.27;4.60;;;;;;;;;;751674;184;816375;-61
2024/02/24 07:34:27;;;;;;;6.60;5.03;;;;;;;;;;755473;185;983952;-64
2024/02/24 07:36:53;;;;;;;8.07;4.80;;;;;;;;;;748095;184;1640777;-64
2024/02/24 07:39:18;;;;;;;7.83;5.03;;;;;;;;;;749488;185;819317;-61
2024/02/24 07:41:45;;;;;;;7.73;5.63;;;;;;;;;;752815;185;829736;-61
2024/02/24 07:44:10;;;;;;;8.63;5.50;;;;;;;;;;759986;183;924652;-62
2024/02/24 07:46:36;;;;;;;6.70;4.93;;;;;;;;;;748783;184;916110;-64
2024/02/24 07:49:02;;;;;;;5.60;3.60;;;;;;;;;;753213;185;637960;-63
2024/02/24 07:51:28;;;;;;;5.20;3.05;;;;;;;;;;752468;185;918016;-62
2024/02/24 07:53:53;;;;;;;4.80;3.67;;;;;;;;;;748019;185;922973;-61
2024/02/24 07:56:20;;;;;;;5.70;3.97;;;;;;;;;;749513;185;825695;-64
2024/02/24 07:58:46;;;;;;;4.93;3.43;;;;;;;;;;756038;185;918987;-65
2024/02/24 08:01:12;;;;;;;5.10;3.40;;;;;;;;;;750924;185;920825;-65
2024/02/24 08:03:38;;;;;;;4.40;2.97;;;;;;;;;;751411;184;891519;-65
2024/02/24 08:06:04;;;;;;;5.20;3.28;;;;;;;;;;753742;185;846179;-63
2024/02/24 08:08:31;;;;;;;4.50;3.40;;;;;;;;;;760371;182;615017;-64
2024/02/24 08:10:56;;;;;;;5.37;4.43;;;;;;;;;;752180;184;631028;-64
2024/02/24 08:13:21;;;;;;;5.90;3.53;;;;;;;;;;751569;184;919488;-63
2024/02/24 08:15:47;;;;;;;4.47;3.37;;;;;;;;;;752684;185;937175;-63
2024/02/24 08:18:13;;;;;;;4.10;3.10;;;;;;;;;;745980;184;897601;-65
2024/02/24 08:20:39;;;;;;;3.80;2.90;;;;;;;;;;752389;185;720691;-62
2024/02/24 08:23:05;;;;;;;5.33;4.00;;;;;;;;;;756321;184;858823;-63
2024/02/24 08:25:31;;;;;;;4.80;3.17;;;;;;;;;;758985;184;708092;-61
2024/02/24 08:27:56;;;;;;;4.87;3.03;;;;;;;;;;758251;185;626963;-63
2024/02/24 08:30:22;;;;;;;5.70;3.57;;;;;;;;;;760617;185;624940;-60
2024/02/24 08:32:49;;;;;;;4.10;2.60;;;;;;;;;;753263;183;626674;-60
2024/02/24 08:35:14;;;;;;;4.07;2.80;;;;;;;;;;753547;185;634502;-61
2024/02/24 08:37:40;;;;;;;3.30;2.77;;;;;;;;;;748195;185;913914;-61
2024/02/24 08:40:06;;;;;;;5.63;3.20;;;;;;;;;;756137;185;917083;-62
2024/02/24 08:42:32;;;;;;;4.70;2.80;;;;;;;;;;751709;185;808012;-62
2024/02/24 08:44:58;;;;;;;5.30;2.87;;;;;;;;;;751566;185;920379;-61
2024/02/24 08:47:24;;;;;;;3.65;2.40;;;;;;;;;;755769;185;918473;-60
2024/02/24 08:49:49;;;;;;;4.70;3.43;;;;;;;;;;750038;185;914713;-68
2024/02/24 08:52:15;;;;;;;4.37;2.80;;;;;;;;;;747657;185;921123;-63
2024/02/24 08:54:41;;;;;;;4.13;2.80;;;;;;;;;;756538;185;918769;-60
2024/02/24 08:57:07;;;;;;;4.07;3.10;;;;;;;;;;753361;185;895621;-64
2024/02/24 08:59:33;;;;;;;4.70;3.27;;;;;;;;;;748967;183;917842;-66
2024/02/24 09:01:59;;;;;;;4.47;3.40;;;;;;;;;;748559;185;916575;-65
2024/02/24 09:04:24;;;;;;;4.40;3.20;;;;;;;;;;748620;187;919244;-62
2024/02/24 09:06:50;;;;;;;4.37;3.13;;;;;;;;;;750033;184;919132;-60
2024/02/24 09:09:16;;;;;;;4.20;3.20;;;;;;;;;;748357;184;920362;-63
2024/02/24 09:11:42;;;;;;;5.17;3.17;;;;;;;;;;755594;185;920073;-60
2024/02/24 09:14:08;;;;;;;4.73;3.30;;;;;;;;;;752988;185;865636;-63
2024/02/24 09:16:35;;;;;;;5.63;3.50;;;;;;;;;;751665;185;919953;-63
2024/02/24 09:18:59;;;;;;;4.97;3.30;;;;;;;;;;757020;184;782405;-64
2024/02/24 09:21:25;;;;;;;3.60;2.57;;;;;;;;;;749817;185;819096;-61
2024/02/24 09:23:51;;;;;;;4.90;3.40;;;;;;;;;;746350;185;818263;-63
2024/02/24 09:26:17;;;;;;;6.17;3.90;;;;;;;;;;754026;185;911815;-64
2024/02/24 09:28:43;;;;;;;5.37;3.83;;;;;;;;;;747813;185;918171;-63
2024/02/24 09:31:09;;;;;;;4.80;3.33;;;;;;;;;;749468;185;919196;-63
2024/02/24 09:33:34;;;;;;;4.70;3.47;;;;;;;;;;750334;185;823933;-65
2024/02/24 09:36:00;;;;;;;5.30;3.80;;;;;;;;;;758888;184;814211;-65
2024/02/24 09:38:26;;;;;;;5.40;3.53;;;;;;;;;;753784;185;919021;-63
2024/02/24 09:40:52;;;;;;;5.00;3.28;;;;;;;;;;753561;185;1023791;-64
2024/02/24 09:43:18;;;;;;;4.35;3.17;;;;;;;;;;753963;183;849908;-63
2024/02/24 09:45:46;;;;;;;4.50;3.47;;;;;;;;;;749807;185;815114;-60
2024/02/24 09:48:11;;;;;;;4.40;3.30;;;;;;;;;;751540;184;919877;-63
2024/02/24 09:50:37;;;;;;;5.40;3.50;;;;;;;;;;756282;184;819126;-60
2024/02/24 09:53:03;;;;;;;5.00;4.03;;;;;;;;;;747845;185;918914;-60
2024/02/24 09:55:29;;;;;;;5.37;4.27;;;;;;;;;;749061;185;919909;-63
2024/02/24 09:57:55;;;;;;;5.43;4.00;;;;;;;;;;748052;185;920705;-65
2024/02/24 10:00:21;;;;;;;4.77;3.90;;;;;;;;;;756933;184;919743;-65
2024/02/24 10:02:46;;;;;;;5.73;4.27;;;;;;;;;;752733;185;918158;-63
2024/02/24 10:05:12;;;;;;;5.07;4.20;;;;;;;;;;749237;185;921689;-60
2024/02/24 10:07:39;;;;;;;5.83;4.83;;;;;;;;;;757326;185;848109;-65
2024/02/24 10:10:04;;;;;;;5.00;3.73;;;;;;;;;;747830;185;917649;-60
2024/02/24 10:12:30;;;;;;;5.67;3.97;;;;;;;;;;748687;185;919615;-64
2024/02/24 10:14:56;;;;;;;10.50;5.00;;;;;;;;;;753625;185;902770;-63
2024/02/24 10:17:22;;;;;;;5.50;4.17;;;;;;;;;;749963;185;917436;-60
2024/02/24 10:19:48;;;;;;;5.53;4.60;;;;;;;;;;750901;185;907567;-63
2024/02/24 10:22:16;;;;;;;5.37;3.90;;;;;;;;;;751929;184;918340;-65
2024/02/24 10:24:41;;;;;;;4.30;3.40;;;;;;;;;;754387;185;1004464;-63
2024/02/24 10:27:07;;;;;;;5.50;3.63;;;;;;;;;;747406;185;1022279;-61
2024/02/24 10:29:33;;;;;;;4.93;3.90;;;;;;;;;;749931;185;915343;-60
2024/02/24 10:31:59;;;;;;;5.23;4.43;;;;;;;;;;754742;185;918018;-61
2024/02/24 10:34:25;;;;;;;4.03;3.47;;;;;;;;;;750862;185;922042;-60
2024/02/24 10:36:51;;;;;;;4.33;3.00;;;;;;;;;;749850;185;919007;-64
2024/02/24 10:39:16;;;;;;;4.43;3.20;;;;;;;;;;752586;185;919262;-60
2024/02/24 10:41:42;;;;;;;4.77;3.37;;;;;;;;;;748010;184;919922;-60
2024/02/24 10:44:08;;;;;;;5.20;3.83;;;;;;;;;;748329;185;818360;-60
2024/02/24 10:46:35;;;;;;;4.17;3.53;;;;;;;;;;750819;184;818961;-64
2024/02/24 10:49:00;;;;;;;5.70;4.47;;;;;;;;;;761305;184;816597;-61
2024/02/24 10:51:26;;;;;;;4.50;2.93;;;;;;;;;;754442;185;939743;-60
2024/02/24 10:53:52;;;;;;;4.97;3.80;;;;;;;;;;751770;184;917957;-64
2024/02/24 10:56:18;;;;;;;6.43;3.43;;;;;;;;;;754845;185;918450;-61
2024/02/24 10:58:44;;;;;;;4.00;3.00;;;;;;;;;;751036;185;816385;-60
2024/02/24 11:01:09;;;;;;;4.40;3.10;;;;;;;;;;749728;185;918153;-65
2024/02/24 11:03:35;;;;;;;4.30;3.10;;;;;;;;;;755364;185;880354;-64
2024/02/24 11:06:02;;;;;;;4.17;3.53;;;;;;;;;;750762;184;893765;-60
2024/02/24 11:08:35;;;;;;;4.15;3.05;;;;;;;;;;749766;185;875606;-60
2024/02/24 11:11:05;;;;;;;5.07;3.57;;;;;;;;;;749233;185;836880;-60
2024/02/24 11:13:31;;;;;;;6.90;3.40;;;;;;;;;;753629;185;876915;-65
2024/02/24 11:15:57;;;;;;;3.63;3.03;;;;;;;;;;751113;185;1021268;-63
2024/02/24 11:18:38;;;;;;;8.47;3.50;;;;;;;;;;752751;185;919463;-64
2024/02/24 11:21:04;;;;;;;4.60;3.30;;;;;;;;;;755061;184;639804;-59
2024/02/24 11:23:33;;;;;;;4.05;2.92;;;;;;;;;;747380;185;931928;-64
2024/02/24 11:26:02;;;;;;;4.37;3.23;;;;;;;;;;751297;184;631294;-60
2024/02/24 11:28:29;;;;;;;3.77;2.50;;;;;;;;;;755321;185;623084;-66
2024/02/24 11:30:53;;;;;;;4.00;2.70;;;;;;;;;;749752;185;912073;-60
2024/02/24 11:33:21;;;;;;;4.20;2.57;;;;;;;;;;754888;184;806857;-66
2024/02/24 11:35:47;;;;;;;5.03;3.30;;;;;;;;;;750726;185;819463;-64
2024/02/24 11:38:13;;;;;;;5.70;3.93;;;;;;;;;;748949;185;767249;-64
2024/02/24 11:40:39;;;;;;;5.33;3.10;;;;;;;;;;750017;184;919192;-59
2024/02/24 11:43:04;;;;;;;3.93;3.00;;;;;;;;;;752867;184;878241;-58
2024/02/24 11:45:30;;;;;;;5.00;3.43;;;;;;;;;;748214;185;902700;-62
2024/02/24 11:47:56;;;;;;;4.30;2.67;;;;;;;;;;751253;184;806573;-60
2024/02/24 11:50:22;;;;;;;3.83;2.30;;;;;;;;;;755474;185;743884;-59
2024/02/24 11:52:48;;;;;;;3.67;2.50;;;;;;;;;;748351;185;920428;-59
2024/02/24 11:55:14;;;;;;;3.20;2.63;;;;;;;;;;751543;185;918981;-59
2024/02/24 11:57:39;;;;;;;4.03;2.63;;;;;;;;;;757335;185;624815;-60
2024/02/24 12:00:06;;;;;;;4.80;3.13;;;;;;;;;;757905;183;633412;-59
2024/02/24 12:02:32;;;;;;;3.50;2.50;;;;;;;;;;754073;184;866598;-63
2024/02/24 12:05:03;;;;;;;4.10;2.60;;;;;;;;;;753662;185;628835;-64
2024/02/24 12:07:29;;;;;;;4.23;3.20;;;;;;;;;;760408;183;616001;-65
2024/02/24 12:09:55;;;;;;;6.10;3.70;;;;;;;;;;753724;185;627424;-65
2024/02/24 12:12:21;;;;;;;7.50;3.20;;;;;;;;;;753563;185;816659;-63
2024/02/24 12:14:47;;;;;;;3.80;2.73;;;;;;;;;;756796;185;914490;-63
2024/02/24 12:17:12;;;;;;;3.50;2.30;;;;;;;;;;751704;185;634834;-59
2024/02/24 12:19:38;;;;;;;3.83;2.80;;;;;;;;;;752504;185;625405;-65
2024/02/24 12:22:06;;;;;;;3.23;2.23;;;;;;;;;;756635;183;938068;-65
2024/02/24 12:24:32;;;;;;;4.67;3.17;;;;;;;;;;752735;185;884754;-64
2024/02/24 12:27:00;;;;;;;4.13;2.57;;;;;;;;;;748120;185;904446;-60
2024/02/24 12:29:25;;;;;;;4.18;2.62;;;;;;;;;;748799;185;916580;-66
2024/02/24 12:31:51;;;;;;;4.33;3.13;;;;;;;;;;753874;185;872913;-59
2024/02/24 12:34:17;;;;;;;3.67;2.60;;;;;;;;;;751179;184;803681;-66
2024/02/24 12:36:43;;;;;;;3.97;2.80;;;;;;;;;;747258;185;918897;-66
2024/02/24 12:39:09;;;;;;;4.10;2.70;;;;;;;;;;753013;184;921229;-65
2024/02/24 12:41:35;;;;;;;4.20;3.10;;;;;;;;;;749848;185;918445;-64
2024/02/24 12:44:02;;;;;;;3.63;2.10;;;;;;;;;;751356;185;919656;-59
2024/02/24 12:46:26;;;;;;;2.70;1.90;;;;;;;;;;749539;185;918828;-60
2024/02/24 12:48:54;;;;;;;4.00;2.60;;;;;;;;;;749977;185;920914;-59
2024/02/24 12:51:18;;;;;;;4.17;2.97;;;;;;;;;;748768;185;920373;-64
2024/02/24 12:53:44;;;;;;;3.47;2.33;;;;;;;;;;749787;184;812954;-64
2024/02/24 12:56:10;;;;;;;3.80;2.60;;;;;;;;;;753308;185;857644;-59
2024/02/24 12:58:38;;;;;;;3.73;2.50;;;;;;;;;;748647;185;825420;-60
2024/02/24 13:01:01;;;;;;;4.05;2.55;;;;;;;;;;747408;185;912068;-60
2024/02/24 13:03:27;;;;;;;5.37;2.57;;;;;;;;;;755033;184;1019186;-60
2024/02/24 13:05:53;;;;;;;3.63;2.67;;;;;;;;;;750163;185;914496;-64
2024/02/24 13:08:19;;;;;;;3.93;2.67;;;;;;;;;;752989;182;918421;-60
2024/02/24 13:10:45;;;;;;;3.90;2.63;;;;;;;;;;756718;184;918938;-60
2024/02/24 13:13:10;;;;;;;4.97;2.70;;;;;;;;;;751191;184;826175;-64
2024/02/24 13:15:36;;;;;;;5.80;3.17;;;;;;;;;;753564;185;814904;-64
2024/02/24 13:18:02;;;;;;;4.20;3.20;;;;;;;;;;754965;184;847844;-60
2024/02/24 13:20:28;;;;;;;5.80;3.67;;;;;;;;;;754812;185;818939;-59
2024/02/24 13:22:54;;;;;;;4.25;2.80;;;;;;;;;;749537;185;788442;-64
2024/02/24 13:25:21;;;;;;;3.93;2.87;;;;;;;;;;749200;185;919472;-64
2024/02/24 13:27:47;;;;;;;4.30;3.23;;;;;;;;;;756714;184;619819;-63
2024/02/24 13:30:12;;;;;;;4.00;2.50;;;;;;;;;;754616;184;918341;-66
2024/02/24 13:32:38;;;;;;;6.77;2.73;;;;;;;;;;754523;183;899578;-59
2024/02/24 13:35:04;;;;;;;4.20;3.03;;;;;;;;;;751662;185;918645;-60
2024/02/24 13:37:30;;;;;;;4.93;2.90;;;;;;;;;;750560;185;762296;-59
2024/02/24 13:39:55;;;;;;;3.93;2.73;;;;;;;;;;749297;185;978984;-60
2024/02/24 13:42:21;;;;;;;3.70;2.77;;;;;;;;;;750988;185;885412;-61
2024/02/24 13:44:47;;;;;;;3.33;2.30;;;;;;;;;;757184;184;623106;-66
2024/02/24 13:47:14;;;;;;;4.17;2.70;;;;;;;;;;752580;185;628258;-66
2024/02/24 13:49:39;;;;;;;4.00;2.33;;;;;;;;;;752105;185;627795;-64
2024/02/24 13:52:05;;;;;;;3.53;2.50;;;;;;;;;;753275;184;918066;-60
2024/02/24 13:54:30;;;;;;;3.50;2.40;;;;;;;;;;750658;185;778874;-60
2024/02/24 13:56:56;;;;;;;3.80;2.70;;;;;;;;;;753041;185;619649;-60
2024/02/24 13:59:22;;;;;;;3.70;2.77;;;;;;;;;;754216;184;784067;-60
2024/02/24 14:01:50;;;;;;;4.70;2.70;;;;;;;;;;750168;184;919682;-60
2024/02/24 14:04:16;;;;;;;5.07;3.40;;;;;;;;;;750716;183;853241;-64
2024/02/24 14:06:42;;;;;;;4.40;2.90;;;;;;;;;;748531;185;911861;-61
2024/02/24 14:09:09;;;;;;;6.70;2.87;;;;;;;;;;753267;185;919064;-64
2024/02/24 14:11:33;;;;;;;4.23;2.60;;;;;;;;;;751877;185;776074;-64
2024/02/24 14:13:59;;;;;;;4.53;2.73;;;;;;;;;;752139;185;627463;-64
2024/02/24 14:16:25;;;;;;;4.83;3.33;;;;;;;;;;756198;184;820403;-65
2024/02/24 14:18:51;;;;;;;4.33;2.90;;;;;;;;;;753684;184;627219;-65
2024/02/24 14:21:17;;;;;;;7.23;2.87;;;;;;;;;;756195;184;872420;-65